createdAt,value
2017-07-29T00:01:19.659Z,3.10
2017-07-29T00:03:47.087Z,3.77
2017-07-29T00:06:14.563Z,2.90
2017-07-29T00:08:42.068Z,3.67
2017-07-29T00:11:10.295Z,2.93
2017-07-29T00:13:37.822Z,3.80
2017-07-29T00:16:05.272Z,3.57
2017-07-29T00:18:32.717Z,3.20
2017-07-29T00:21:00.171Z,3.53
2017-07-29T00:23:27.624Z,3.50
2017-07-29T00:25:55.087Z,3.00
2017-07-29T00:28:22.564Z,3.10
2017-07-29T00:30:50.005Z,3.50
2017-07-29T00:33:17.472Z,3.70
2017-07-29T00:35:44.912Z,4.97
2017-07-29T00:38:12.376Z,4.30
2017-07-29T00:40:39.907Z,3.00
2017-07-29T00:43:08.122Z,3.47
2017-07-29T00:45:35.596Z,4.20
2017-07-29T00:48:03.056Z,3.90
2017-07-29T00:50:30.511Z,3.50
2017-07-29T00:52:57.955Z,3.80
2017-07-29T00:55:25.408Z,3.70
2017-07-29T00:57:52.847Z,3.30
2017-07-29T01:00:20.307Z,3.90
2017-07-29T01:02:47.780Z,3.67
2017-07-29T01:05:15.244Z,3.93
2017-07-29T01:07:42.679Z,3.53
2017-07-29T01:10:10.146Z,3.70
2017-07-29T01:12:37.603Z,4.00
2017-07-29T01:15:05.059Z,3.50
2017-07-29T01:17:32.516Z,3.87
2017-07-29T01:19:59.980Z,3.70
2017-07-29T01:22:27.436Z,4.10
2017-07-29T01:24:55.630Z,3.50
2017-07-29T01:27:23.125Z,3.77
2017-07-29T01:29:51.347Z,4.30
2017-07-29T01:32:18.803Z,3.97
2017-07-29T01:34:46.256Z,3.50
2017-07-29T01:37:13.707Z,3.87
2017-07-29T01:39:41.169Z,4.33
2017-07-29T01:42:08.605Z,3.93
2017-07-29T01:44:36.065Z,3.80
2017-07-29T01:47:03.505Z,4.07
2017-07-29T01:49:30.962Z,3.90
2017-07-29T01:51:58.401Z,4.43
2017-07-29T01:54:26.608Z,3.70
2017-07-29T01:56:54.058Z,3.83
2017-07-29T01:59:21.579Z,3.93
2017-07-29T02:01:49.791Z,3.70
2017-07-29T02:04:17.255Z,4.13
2017-07-29T02:06:44.725Z,4.17
2017-07-29T02:09:12.201Z,3.80
2017-07-29T02:11:39.656Z,4.20
2017-07-29T02:14:07.131Z,4.20
2017-07-29T02:16:35.356Z,3.60
2017-07-29T02:19:02.810Z,3.93
2017-07-29T02:21:30.266Z,4.27
2017-07-29T02:23:57.724Z,4.13
2017-07-29T02:26:25.169Z,4.03
2017-07-29T02:28:52.595Z,4.00
2017-07-29T02:31:20.947Z,3.70
2017-07-29T02:33:48.398Z,3.90
2017-07-29T02:36:15.856Z,4.43
2017-07-29T02:38:43.293Z,3.93
2017-07-29T02:41:10.761Z,4.00
2017-07-29T02:43:38.211Z,4.03
2017-07-29T02:46:05.651Z,4.40
2017-07-29T02:48:33.112Z,4.40
2017-07-29T02:51:00.579Z,4.30
2017-07-29T02:53:28.045Z,3.97
2017-07-29T02:55:55.504Z,4.77
2017-07-29T02:58:22.964Z,4.87
2017-07-29T03:00:50.403Z,4.60
2017-07-29T03:03:17.861Z,3.97
2017-07-29T03:05:45.320Z,4.87
2017-07-29T03:08:12.774Z,4.60
2017-07-29T03:10:40.330Z,4.77
2017-07-29T03:13:07.977Z,5.10
2017-07-29T03:15:35.513Z,4.47
2017-07-29T03:18:03.059Z,6.13
2017-07-29T03:20:30.495Z,4.43
2017-07-29T03:22:57.936Z,4.60
2017-07-29T03:25:25.405Z,4.47
2017-07-29T03:27:52.841Z,4.40
2017-07-29T03:30:20.296Z,4.70
2017-07-29T03:32:47.783Z,4.27
2017-07-29T03:35:15.231Z,4.50
2017-07-29T03:37:43.459Z,4.70
2017-07-29T03:40:10.913Z,4.10
2017-07-29T03:42:38.375Z,5.10
2017-07-29T03:45:05.832Z,4.23
2017-07-29T03:47:33.291Z,5.00
2017-07-29T03:50:00.725Z,4.60
2017-07-29T03:52:28.187Z,5.40
2017-07-29T03:54:55.645Z,4.70
2017-07-29T03:57:23.072Z,5.17
2017-07-29T03:59:50.532Z,4.63
2017-07-29T04:02:17.967Z,5.43
2017-07-29T04:04:46.283Z,4.50
2017-07-29T04:07:13.887Z,4.37
2017-07-29T04:09:41.443Z,4.83
2017-07-29T04:12:08.915Z,4.60
2017-07-29T04:14:38.101Z,5.60
2017-07-29T04:17:05.575Z,5.90
2017-07-29T04:19:33.023Z,4.80
2017-07-29T04:22:01.240Z,4.60
2017-07-29T04:24:28.695Z,4.80
2017-07-29T04:26:56.135Z,5.13
2017-07-29T04:29:23.575Z,4.37
2017-07-29T04:31:51.800Z,4.60
2017-07-29T04:34:19.236Z,4.73
2017-07-29T04:36:46.696Z,4.70
2017-07-29T04:39:14.132Z,5.50
2017-07-29T04:41:41.593Z,4.60
2017-07-29T04:44:09.088Z,4.17
2017-07-29T04:46:36.550Z,5.73
2017-07-29T04:49:03.999Z,4.70
2017-07-29T04:51:31.429Z,4.40
2017-07-29T04:53:58.888Z,4.70
2017-07-29T04:56:26.328Z,5.13
2017-07-29T04:58:53.788Z,4.87
2017-07-29T05:01:21.267Z,5.23
2017-07-29T05:03:48.696Z,4.70
2017-07-29T05:06:16.168Z,4.70
2017-07-29T05:08:43.614Z,5.23
2017-07-29T05:11:11.064Z,5.23
2017-07-29T05:13:38.522Z,5.20
2017-07-29T05:16:05.972Z,5.00
2017-07-29T05:18:33.412Z,5.17
2017-07-29T05:21:00.886Z,5.40
2017-07-29T05:23:28.349Z,6.10
2017-07-29T05:25:55.783Z,6.13
2017-07-29T05:28:23.285Z,5.80
2017-07-29T05:30:50.713Z,5.53
2017-07-29T05:33:18.175Z,5.77
2017-07-29T05:35:45.617Z,5.73
2017-07-29T05:38:13.091Z,5.90
2017-07-29T05:40:40.528Z,5.63
2017-07-29T05:43:07.999Z,6.30
2017-07-29T05:45:35.428Z,6.53
2017-07-29T05:48:02.903Z,4.77
2017-07-29T05:50:30.340Z,6.00
2017-07-29T05:52:58.556Z,5.53
2017-07-29T05:55:26.036Z,5.60
2017-07-29T05:57:53.466Z,5.70
2017-07-29T06:00:21.002Z,6.50
2017-07-29T06:02:48.511Z,5.40
2017-07-29T06:05:15.997Z,6.00
2017-07-29T06:07:44.207Z,6.23
2017-07-29T06:10:11.659Z,6.17
2017-07-29T06:12:39.117Z,5.90
2017-07-29T06:15:06.549Z,5.23
2017-07-29T06:17:34.787Z,5.50
2017-07-29T06:20:02.244Z,5.67
2017-07-29T06:22:29.682Z,5.90
2017-07-29T06:24:57.134Z,6.00
2017-07-29T06:27:24.577Z,5.43
2017-07-29T06:29:52.088Z,6.40
2017-07-29T06:32:19.523Z,5.30
2017-07-29T06:34:46.975Z,5.90
2017-07-29T06:37:14.444Z,6.00
2017-07-29T06:39:41.884Z,5.50
2017-07-29T06:42:09.340Z,6.37
2017-07-29T06:44:36.778Z,6.20
2017-07-29T06:47:04.221Z,5.67
2017-07-29T06:49:31.689Z,5.87
2017-07-29T06:51:59.123Z,4.93
2017-07-29T06:54:26.596Z,4.90
2017-07-29T06:56:54.029Z,5.00
2017-07-29T06:59:21.493Z,5.53
2017-07-29T07:01:48.920Z,5.57
2017-07-29T07:04:16.356Z,5.70
2017-07-29T07:06:43.815Z,5.67
2017-07-29T07:09:11.268Z,5.30
2017-07-29T07:11:38.739Z,5.47
2017-07-29T07:14:06.176Z,5.13
2017-07-29T07:16:33.637Z,5.40
2017-07-29T07:19:01.098Z,4.77
2017-07-29T07:21:28.555Z,5.17
2017-07-29T07:23:55.996Z,5.00
2017-07-29T07:26:23.441Z,4.73
2017-07-29T07:28:50.915Z,4.93
2017-07-29T07:31:18.373Z,4.40
2017-07-29T07:33:45.800Z,4.50
2017-07-29T07:36:13.255Z,4.27
2017-07-29T07:38:40.684Z,4.17
2017-07-29T07:41:08.135Z,4.20
2017-07-29T07:43:35.604Z,4.60
2017-07-29T07:46:03.043Z,4.30
2017-07-29T07:48:31.271Z,4.67
2017-07-29T07:50:58.696Z,4.23
2017-07-29T07:53:26.152Z,3.80
2017-07-29T07:55:53.591Z,3.83
2017-07-29T07:58:21.127Z,3.80
2017-07-29T08:00:49.323Z,3.97
2017-07-29T08:03:16.801Z,3.90
2017-07-29T08:05:44.267Z,4.03
2017-07-29T08:08:11.708Z,3.40
2017-07-29T08:10:39.167Z,3.80
2017-07-29T08:13:06.632Z,3.70
2017-07-29T08:15:34.195Z,2.80
2017-07-29T08:18:01.639Z,3.83
2017-07-29T08:20:29.089Z,3.27
2017-07-29T08:22:56.549Z,3.73
2017-07-29T08:25:23.986Z,3.63
2017-07-29T08:27:52.191Z,2.87
2017-07-29T08:30:19.631Z,3.70
2017-07-29T08:32:47.091Z,4.27
2017-07-29T08:35:14.537Z,4.17
2017-07-29T08:37:41.984Z,3.43
2017-07-29T08:40:09.411Z,4.23
2017-07-29T08:42:36.892Z,3.70
2017-07-29T08:45:05.141Z,3.23
2017-07-29T08:47:32.606Z,2.77
2017-07-29T08:50:00.049Z,3.67
2017-07-29T08:52:27.495Z,3.70
2017-07-29T08:54:55.144Z,3.50
2017-07-29T08:57:22.590Z,4.33
2017-07-29T08:59:50.056Z,3.87
2017-07-29T09:02:17.499Z,3.80
2017-07-29T09:04:44.973Z,3.40
2017-07-29T09:07:12.477Z,3.30
2017-07-29T09:09:40.680Z,3.67
2017-07-29T09:12:08.107Z,3.40
2017-07-29T09:14:35.567Z,3.23
2017-07-29T09:17:03.009Z,3.77
2017-07-29T09:19:31.224Z,4.07
2017-07-29T09:21:58.727Z,3.67
2017-07-29T09:24:26.155Z,3.40
2017-07-29T09:26:53.620Z,3.83
2017-07-29T09:29:21.096Z,3.60
2017-07-29T09:31:48.542Z,3.37
2017-07-29T09:34:16.000Z,3.23
2017-07-29T09:36:43.451Z,3.73
2017-07-29T09:39:10.920Z,3.80
2017-07-29T09:41:38.355Z,3.63
2017-07-29T09:44:05.796Z,3.33
2017-07-29T09:46:33.259Z,3.10
2017-07-29T09:49:00.697Z,3.70
2017-07-29T09:51:28.168Z,3.70
2017-07-29T09:53:55.623Z,3.63
2017-07-29T09:56:23.098Z,3.50
2017-07-29T09:58:50.531Z,3.40
2017-07-29T10:01:18.059Z,2.80
2017-07-29T10:03:45.495Z,3.20
2017-07-29T10:06:13.709Z,3.00
2017-07-29T10:08:41.275Z,2.90
2017-07-29T10:11:08.730Z,2.63
2017-07-29T10:13:36.205Z,3.00
2017-07-29T10:16:03.627Z,3.87
2017-07-29T10:18:31.113Z,3.53
2017-07-29T10:20:58.550Z,3.43
2017-07-29T10:23:26.001Z,2.83
2017-07-29T10:25:53.464Z,3.37
2017-07-29T10:28:20.965Z,3.50
2017-07-29T10:30:49.218Z,3.53
2017-07-29T10:33:16.708Z,3.43
2017-07-29T10:35:45.015Z,3.93
2017-07-29T10:38:12.470Z,2.70
2017-07-29T10:40:39.939Z,2.70
2017-07-29T10:43:07.423Z,2.70
2017-07-29T10:45:34.872Z,2.87
2017-07-29T10:48:02.314Z,2.60
2017-07-29T10:50:29.775Z,2.70
2017-07-29T10:52:57.213Z,2.97
2017-07-29T10:55:24.659Z,2.63
2017-07-29T10:57:52.139Z,2.40
2017-07-29T11:00:19.695Z,2.90
2017-07-29T11:02:47.207Z,3.00
2017-07-29T11:05:15.407Z,2.77
2017-07-29T11:07:42.881Z,2.67
2017-07-29T11:10:10.291Z,2.60
2017-07-29T11:12:37.821Z,2.47
2017-07-29T11:15:05.271Z,3.80
2017-07-29T11:17:32.780Z,2.57
2017-07-29T11:20:00.236Z,2.47
2017-07-29T11:22:27.659Z,2.60
2017-07-29T11:24:55.922Z,2.50
2017-07-29T11:27:23.357Z,2.37
2017-07-29T11:29:50.851Z,2.50
2017-07-29T11:32:18.312Z,2.50
2017-07-29T11:34:45.885Z,2.70
2017-07-29T11:37:13.360Z,2.33
2017-07-29T11:39:40.840Z,2.80
2017-07-29T11:42:08.308Z,2.23
2017-07-29T11:44:35.755Z,2.30
2017-07-29T11:47:03.195Z,2.43
2017-07-29T11:49:30.652Z,2.40
2017-07-29T11:51:58.096Z,2.60
2017-07-29T11:54:25.579Z,3.10
2017-07-29T11:56:53.059Z,2.57
2017-07-29T11:59:20.516Z,2.40
2017-07-29T12:01:48.748Z,2.90
2017-07-29T12:04:16.201Z,2.70
2017-07-29T12:06:43.644Z,3.30
2017-07-29T12:09:11.116Z,3.10
2017-07-29T12:11:38.567Z,2.57
2017-07-29T12:14:06.001Z,2.57
2017-07-29T12:16:33.463Z,2.80
2017-07-29T12:19:00.900Z,2.80
2017-07-29T12:21:28.352Z,2.13
2017-07-29T12:23:55.812Z,2.80
2017-07-29T12:26:23.242Z,2.23
2017-07-29T12:28:50.708Z,2.50
2017-07-29T12:31:18.144Z,2.10
2017-07-29T12:33:45.599Z,2.50
2017-07-29T12:36:13.044Z,2.00
2017-07-29T12:38:40.516Z,1.97
2017-07-29T12:41:07.941Z,2.57
2017-07-29T12:43:35.391Z,2.30
2017-07-29T12:46:03.606Z,2.10
2017-07-29T12:48:31.064Z,2.60
2017-07-29T12:50:58.495Z,2.17
2017-07-29T12:53:25.932Z,2.13
2017-07-29T12:55:53.396Z,1.90
2017-07-29T12:58:20.856Z,2.47
2017-07-29T13:00:48.316Z,2.17
2017-07-29T13:03:15.757Z,2.30
2017-07-29T13:05:43.224Z,2.40
2017-07-29T13:08:10.692Z,2.93
2017-07-29T13:10:38.130Z,2.30
2017-07-29T13:13:05.591Z,2.50
2017-07-29T13:15:33.111Z,2.33
2017-07-29T13:18:01.348Z,2.37
2017-07-29T13:20:28.795Z,2.30
2017-07-29T13:22:56.228Z,2.00
2017-07-29T13:25:23.682Z,3.00
2017-07-29T13:27:51.115Z,2.50
2017-07-29T13:30:18.616Z,2.60
2017-07-29T13:32:46.167Z,2.20
2017-07-29T13:35:13.618Z,2.43
2017-07-29T13:37:41.108Z,2.50
2017-07-29T13:40:09.325Z,2.43
2017-07-29T13:42:36.782Z,2.10
2017-07-29T13:45:04.275Z,2.13
2017-07-29T13:47:31.704Z,2.53
2017-07-29T13:49:59.224Z,2.60
2017-07-29T13:52:26.671Z,2.50
2017-07-29T13:54:54.141Z,2.30
2017-07-29T13:57:21.577Z,2.23
2017-07-29T13:59:49.015Z,2.10
2017-07-29T14:02:17.240Z,2.37
2017-07-29T14:04:44.688Z,2.40
2017-07-29T14:07:12.259Z,2.27
2017-07-29T14:09:39.835Z,2.20
2017-07-29T14:12:07.435Z,1.93
2017-07-29T14:14:34.888Z,2.00
2017-07-29T14:17:02.323Z,1.70
2017-07-29T14:19:30.447Z,1.97
2017-07-29T14:21:57.883Z,2.63
2017-07-29T14:24:25.336Z,1.93
2017-07-29T14:26:52.773Z,2.20
2017-07-29T14:29:20.232Z,1.97
2017-07-29T14:31:47.692Z,1.87
2017-07-29T14:34:15.124Z,1.87
2017-07-29T14:36:42.570Z,1.93
2017-07-29T14:39:10.797Z,1.67
2017-07-29T14:41:38.241Z,2.30
2017-07-29T14:44:05.706Z,1.60
2017-07-29T14:46:33.192Z,1.80
2017-07-29T14:49:00.721Z,2.00
2017-07-29T14:51:28.190Z,1.53
2017-07-29T14:53:55.642Z,2.60
2017-07-29T14:56:23.080Z,2.43
2017-07-29T14:58:50.541Z,2.17
2017-07-29T15:01:17.977Z,2.03
2017-07-29T15:03:45.444Z,2.23
2017-07-29T15:06:12.918Z,2.27
2017-07-29T15:08:40.855Z,2.07
2017-07-29T15:11:08.384Z,2.33
2017-07-29T15:13:35.866Z,2.20
2017-07-29T15:16:03.307Z,2.10
2017-07-29T15:18:30.777Z,2.03
2017-07-29T15:20:58.234Z,1.80
2017-07-29T15:23:25.695Z,1.87
2017-07-29T15:25:53.151Z,2.10
2017-07-29T15:28:20.609Z,2.20
2017-07-29T15:30:48.089Z,2.20
2017-07-29T15:33:16.284Z,2.20
2017-07-29T15:35:43.778Z,2.33
2017-07-29T15:38:11.218Z,2.30
2017-07-29T15:40:38.669Z,1.87
2017-07-29T15:43:06.139Z,2.30
2017-07-29T15:45:33.816Z,2.00
2017-07-29T15:48:01.269Z,2.23
2017-07-29T15:50:28.711Z,2.57
2017-07-29T15:52:57.010Z,2.00
2017-07-29T15:55:24.566Z,1.87
2017-07-29T15:57:52.020Z,2.20
2017-07-29T16:00:20.265Z,2.60
2017-07-29T16:02:47.703Z,2.50
2017-07-29T16:05:15.152Z,2.00
2017-07-29T16:07:43.196Z,2.10
2017-07-29T16:10:11.498Z,2.40
2017-07-29T16:12:38.970Z,1.80
2017-07-29T16:15:06.444Z,2.30
2017-07-29T16:17:33.908Z,2.73
2017-07-29T16:20:01.361Z,2.30
2017-07-29T16:22:28.820Z,2.13
2017-07-29T16:24:56.301Z,2.40
2017-07-29T16:27:23.728Z,2.30
2017-07-29T16:29:52.037Z,2.00
2017-07-29T16:32:19.477Z,2.33
2017-07-29T16:34:46.962Z,2.60
2017-07-29T16:37:14.404Z,2.80
2017-07-29T16:39:41.966Z,2.23
2017-07-29T16:42:09.408Z,2.60
2017-07-29T16:44:36.957Z,1.90
2017-07-29T16:47:05.169Z,2.60
2017-07-29T16:49:32.618Z,2.20
2017-07-29T16:52:00.164Z,2.17
2017-07-29T16:54:27.624Z,2.03
2017-07-29T16:56:55.240Z,2.10
2017-07-29T16:59:22.687Z,1.93
2017-07-29T17:01:50.936Z,4.50
2017-07-29T17:04:18.400Z,2.60
2017-07-29T17:06:45.823Z,2.90
2017-07-29T17:09:13.335Z,2.30
2017-07-29T17:11:40.776Z,2.37
2017-07-29T17:14:09.003Z,3.27
2017-07-29T17:16:37.412Z,2.20
2017-07-29T17:19:05.655Z,2.63
2017-07-29T17:21:33.108Z,2.70
2017-07-29T17:24:00.534Z,3.20
2017-07-29T17:26:27.995Z,2.40
2017-07-29T17:28:55.445Z,2.83
2017-07-29T17:31:22.893Z,2.70
2017-07-29T17:33:50.353Z,2.53
2017-07-29T17:36:17.856Z,2.30
2017-07-29T17:38:45.300Z,2.33
2017-07-29T17:41:12.745Z,2.63
2017-07-29T17:43:40.210Z,2.50
2017-07-29T17:46:07.775Z,2.93
2017-07-29T17:48:35.213Z,3.13
2017-07-29T17:51:02.687Z,2.63
2017-07-29T17:53:30.909Z,3.23
2017-07-29T17:55:58.402Z,2.87
2017-07-29T17:58:25.840Z,2.73
2017-07-29T18:00:53.306Z,2.90
2017-07-29T18:03:20.782Z,2.40
2017-07-29T18:05:49.026Z,2.40
2017-07-29T18:08:16.492Z,3.27
2017-07-29T18:10:43.983Z,3.00
2017-07-29T18:13:12.210Z,2.80
2017-07-29T18:15:39.672Z,3.10
2017-07-29T18:18:07.201Z,4.23
2017-07-29T18:20:34.637Z,2.57
2017-07-29T18:23:02.095Z,2.77
2017-07-29T18:25:29.535Z,2.87
2017-07-29T18:27:57.018Z,2.33
2017-07-29T18:30:24.469Z,2.83
2017-07-29T18:32:51.910Z,2.47
2017-07-29T18:35:19.396Z,2.70
2017-07-29T18:37:46.860Z,3.37
2017-07-29T18:40:14.424Z,3.23
2017-07-29T18:42:41.947Z,3.13
2017-07-29T18:45:09.425Z,3.10
2017-07-29T18:47:36.864Z,2.43
2017-07-29T18:50:04.375Z,3.03
2017-07-29T18:52:31.803Z,2.80
2017-07-29T18:55:00.014Z,3.40
2017-07-29T18:57:27.498Z,3.30
2017-07-29T18:59:54.956Z,2.90
2017-07-29T19:02:22.410Z,3.10
2017-07-29T19:04:49.860Z,3.33
2017-07-29T19:07:17.332Z,3.33
2017-07-29T19:09:44.788Z,3.27
2017-07-29T19:12:12.233Z,3.23
2017-07-29T19:14:39.688Z,3.60
2017-07-29T19:17:07.123Z,3.60
2017-07-29T19:19:34.604Z,3.23
2017-07-29T19:22:06.016Z,2.93
2017-07-29T19:24:33.465Z,2.90
2017-07-29T19:27:00.931Z,3.47
2017-07-29T19:29:28.385Z,3.23
2017-07-29T19:31:55.881Z,3.13
2017-07-29T19:34:24.079Z,5.27
2017-07-29T19:36:51.541Z,3.70
2017-07-29T19:39:18.971Z,3.30
2017-07-29T19:41:47.232Z,3.40
2017-07-29T19:44:15.486Z,3.37
2017-07-29T19:46:42.928Z,3.93
2017-07-29T19:49:10.414Z,3.50
2017-07-29T19:51:37.876Z,3.77
2017-07-29T19:54:06.079Z,3.43
2017-07-29T19:56:33.543Z,4.73
2017-07-29T19:59:01.000Z,3.80
2017-07-29T20:01:28.450Z,4.10
2017-07-29T20:03:55.902Z,3.80
2017-07-29T20:06:23.390Z,3.33
2017-07-29T20:08:50.835Z,3.77
2017-07-29T20:11:18.273Z,3.70
2017-07-29T20:13:45.763Z,3.53
2017-07-29T20:16:13.214Z,4.00
2017-07-29T20:18:40.675Z,4.23
2017-07-29T20:21:08.107Z,6.60
2017-07-29T20:23:35.563Z,4.47
2017-07-29T20:26:03.005Z,4.37
2017-07-29T20:28:30.484Z,3.87
2017-07-29T20:30:57.946Z,4.47
2017-07-29T20:33:25.382Z,4.73
2017-07-29T20:35:52.893Z,4.50
2017-07-29T20:38:20.366Z,3.60
2017-07-29T20:40:47.820Z,4.40
2017-07-29T20:43:15.271Z,3.80
2017-07-29T20:45:42.757Z,4.10
2017-07-29T20:48:10.319Z,4.10
2017-07-29T20:50:37.822Z,4.10
2017-07-29T20:53:05.276Z,4.17
2017-07-29T20:55:32.715Z,4.50
2017-07-29T20:58:00.963Z,5.00
2017-07-29T21:00:28.516Z,4.93
2017-07-29T21:02:56.113Z,4.03
2017-07-29T21:05:24.176Z,5.10
2017-07-29T21:07:51.608Z,4.53
2017-07-29T21:10:19.065Z,3.83
2017-07-29T21:12:47.299Z,4.00
2017-07-29T21:15:14.776Z,4.43
2017-07-29T21:17:42.267Z,4.53
2017-07-29T21:20:09.725Z,4.03
2017-07-29T21:22:37.202Z,3.83
2017-07-29T21:25:04.649Z,5.00
2017-07-29T21:27:32.145Z,3.70
2017-07-29T21:29:59.613Z,4.30
2017-07-29T21:32:27.185Z,4.43
2017-07-29T21:34:56.136Z,3.13
2017-07-29T21:37:23.604Z,4.47
2017-07-29T21:39:51.035Z,3.80
2017-07-29T21:42:18.483Z,3.70
2017-07-29T21:44:45.953Z,4.10
2017-07-29T21:47:13.615Z,4.00
2017-07-29T21:49:41.175Z,4.00
2017-07-29T21:52:08.648Z,3.60
2017-07-29T21:54:37.327Z,3.90
2017-07-29T21:57:04.758Z,4.03
2017-07-29T21:59:32.213Z,4.10
2017-07-29T22:01:59.664Z,3.90
2017-07-29T22:04:27.114Z,4.67
2017-07-29T22:06:54.561Z,4.10
2017-07-29T22:09:22.015Z,3.60
2017-07-29T22:11:49.477Z,4.60
2017-07-29T22:14:16.919Z,6.10
2017-07-29T22:16:44.411Z,4.63
2017-07-29T22:19:11.840Z,4.73
2017-07-29T22:21:39.299Z,4.50
2017-07-29T22:24:06.749Z,5.07
2017-07-29T22:26:34.200Z,4.53
2017-07-29T22:29:01.688Z,4.87
2017-07-29T22:31:29.136Z,4.67
2017-07-29T22:33:56.588Z,4.20
2017-07-29T22:36:24.048Z,4.43
2017-07-29T22:38:51.503Z,5.17
2017-07-29T22:41:18.939Z,5.40
2017-07-29T22:43:46.408Z,5.70
2017-07-29T22:46:13.865Z,5.10
2017-07-29T22:48:41.295Z,5.50
2017-07-29T22:51:08.815Z,5.50
2017-07-29T22:53:36.252Z,5.57
2017-07-29T22:56:04.477Z,4.30
2017-07-29T22:58:31.935Z,4.80
2017-07-29T23:00:59.368Z,5.40
2017-07-29T23:03:27.194Z,4.67
2017-07-29T23:05:55.403Z,4.83
2017-07-29T23:08:22.868Z,5.37
2017-07-29T23:10:50.315Z,5.10
2017-07-29T23:13:17.812Z,5.20
2017-07-29T23:15:45.271Z,5.50
2017-07-29T23:18:12.711Z,6.90
2017-07-29T23:20:40.167Z,5.17
2017-07-29T23:23:07.603Z,7.33
2017-07-29T23:25:35.056Z,5.60
2017-07-29T23:28:02.513Z,5.57
2017-07-29T23:30:29.961Z,5.23
2017-07-29T23:32:57.417Z,6.00
2017-07-29T23:35:26.007Z,5.43
2017-07-29T23:37:53.469Z,5.30
2017-07-29T23:40:20.908Z,6.37
2017-07-29T23:42:48.358Z,6.50
2017-07-29T23:45:15.806Z,6.27
2017-07-29T23:47:43.241Z,5.60
2017-07-29T23:50:10.699Z,6.57
2017-07-29T23:52:38.162Z,4.83
2017-07-29T23:55:05.633Z,5.33
2017-07-29T23:57:33.143Z,6.17
